Time;durP1;ratioP1;P1;durP2;ratioP2;P2;SDS_P1;SDS_P2;PMS_P1;PMS_P2;Temp;Humidity;BMP_temperature;BMP_pressure;BME280_temperature;BME280_humidity;BME280_pressure;Samples;Min_cycle;Max_cycle;Signal;HPM_P1;HPM_P2
2022/08/05 00:00:26;;;;;;;11.80;10.27;;;;;;;;;;5080744;28;20024;-51
2022/08/05 00:02:52;;;;;;;16.15;10.20;;;;;;;;;;5073809;28;20032;-52
2022/08/05 00:05:22;;;;;;;22.77;10.15;;;;;;;;;;5084984;28;20027;-53
2022/08/05 00:07:48;;;;;;;16.50;9.77;;;;;;;;;;5084659;28;20025;-56
2022/08/05 00:10:14;;;;;;;12.18;8.65;;;;;;;;;;5077499;28;20032;-51
2022/08/05 00:12:40;;;;;;;12.15;9.45;;;;;;;;;;5082332;28;20116;-54
2022/08/05 00:15:06;;;;;;;15.95;9.63;;;;;;;;;;5093805;28;20031;-52
2022/08/05 00:17:32;;;;;;;18.23;10.00;;;;;;;;;;5093223;28;20118;-52
2022/08/05 00:19:58;;;;;;;11.88;8.90;;;;;;;;;;5082553;28;20502;-52
2022/08/05 00:22:24;;;;;;;13.32;9.63;;;;;;;;;;5076172;28;20028;-51
2022/08/05 00:24:50;;;;;;;14.00;10.02;;;;;;;;;;5093589;28;20024;-51
2022/08/05 00:27:16;;;;;;;12.10;7.78;;;;;;;;;;5092061;28;20032;-54
2022/08/05 00:29:42;;;;;;;9.50;7.60;;;;;;;;;;5092967;28;20394;-52
2022/08/05 00:32:11;;;;;;;9.82;8.77;;;;;;;;;;5093234;28;20482;-54
2022/08/05 00:34:37;;;;;;;119.25;13.77;;;;;;;;;;5081822;28;20521;-54
2022/08/05 00:37:03;;;;;;;26.77;10.23;;;;;;;;;;5090644;28;20028;-51
2022/08/05 00:39:29;;;;;;;15.73;8.20;;;;;;;;;;5073070;28;20033;-51
2022/08/05 00:41:55;;;;;;;12.55;8.55;;;;;;;;;;5074177;28;20079;-51
2022/08/05 00:44:24;;;;;;;10.52;8.68;;;;;;;;;;5091592;28;20028;-50
2022/08/05 00:46:50;;;;;;;15.23;8.13;;;;;;;;;;5088751;28;20439;-53
2022/08/05 00:49:18;;;;;;;11.10;8.20;;;;;;;;;;5072993;28;20034;-52
2022/08/05 00:51:45;;;;;;;10.65;7.85;;;;;;;;;;5073185;28;20100;-54
2022/08/05 00:54:12;;;;;;;10.93;8.02;;;;;;;;;;5079497;28;20024;-51
2022/08/05 00:56:37;;;;;;;;;;;;;;;;;;5093498;28;20032;-50
2022/08/05 00:59:04;;;;;;;11.57;7.50;;;;;;;;;;5078519;28;19912;-52
2022/08/05 01:01:30;;;;;;;10.85;6.78;;;;;;;;;;5078128;28;20070;-51
2022/08/05 01:03:57;;;;;;;10.45;6.95;;;;;;;;;;5072840;28;20107;-55
2022/08/05 01:06:23;;;;;;;12.10;7.30;;;;;;;;;;5072474;28;20021;-50
2022/08/05 01:08:49;;;;;;;10.73;7.78;;;;;;;;;;5073181;28;20044;-53
2022/08/05 01:11:17;;;;;;;10.40;6.70;;;;;;;;;;5087620;28;20043;-51
2022/08/05 01:14:00;;;;;;;12.15;6.88;;;;;;;;;;5082911;28;20064;-51
2022/08/05 01:16:30;;;;;;;8.30;7.35;;;;;;;;;;5072724;28;20111;-51
2022/08/05 01:19:04;;;;;;;10.27;8.07;;;;;;;;;;5092045;28;20513;-52
2022/08/05 01:21:54;;;;;;;10.15;7.45;;;;;;;;;;5090896;28;20034;-52
2022/08/05 01:24:23;;;;;;;10.27;7.50;;;;;;;;;;5092006;28;20051;-52
2022/08/05 01:27:01;;;;;;;13.40;7.38;;;;;;;;;;5091044;28;20470;-50
2022/08/05 01:29:40;;;;;;;11.02;7.18;;;;;;;;;;5079601;28;20040;-51
2022/08/05 01:32:07;;;;;;;8.82;6.70;;;;;;;;;;5091287;28;20028;-51
2022/08/05 01:34:33;;;;;;;10.55;7.38;;;;;;;;;;5076093;28;20039;-52
2022/08/05 01:37:19;;;;;;;13.70;7.13;;;;;;;;;;5090512;28;20020;-53
2022/08/05 01:39:46;;;;;;;13.60;7.63;;;;;;;;;;5074675;28;20263;-52
2022/08/05 01:42:12;;;;;;;;;;;;;;;;;;5074810;28;20425;-51
2022/08/05 01:44:38;;;;;;;12.38;7.53;;;;;;;;;;5081861;28;19954;-55
2022/08/05 01:47:05;;;;;;;7.93;7.13;;;;;;;;;;5071738;28;20035;-52
2022/08/05 01:49:32;;;;;;;8.95;6.65;;;;;;;;;;5071867;28;20028;-50
2022/08/05 01:52:00;;;;;;;9.35;7.03;;;;;;;;;;5071950;28;20032;-51
2022/08/05 01:54:29;;;;;;;12.35;7.10;;;;;;;;;;5082751;28;20031;-54
2022/08/05 01:56:55;;;;;;;7.50;6.68;;;;;;;;;;5075181;28;20044;-51
2022/08/05 01:59:23;;;;;;;14.55;7.32;;;;;;;;;;5076119;28;20027;-50
2022/08/05 02:01:49;;;;;;;9.13;7.32;;;;;;;;;;5083257;28;20031;-55
2022/08/05 02:04:17;;;;;;;11.00;7.85;;;;;;;;;;5078171;28;20039;-51
2022/08/05 02:06:43;;;;;;;10.75;8.18;;;;;;;;;;5091430;28;20021;-52
2022/08/05 02:09:09;;;;;;;8.75;7.57;;;;;;;;;;5078235;28;20075;-51
2022/08/05 02:11:47;;;;;;;12.13;9.07;;;;;;;;;;5071491;28;20025;-54
2022/08/05 02:14:31;;;;;;;9.40;8.35;;;;;;;;;;5075503;28;20111;-50
2022/08/05 02:17:01;;;;;;;12.48;8.00;;;;;;;;;;5070072;28;20024;-52
2022/08/05 02:19:27;;;;;;;14.88;7.80;;;;;;;;;;5071493;28;20028;-51
2022/08/05 02:21:58;;;;;;;9.20;7.67;;;;;;;;;;5080520;28;20020;-51
2022/08/05 02:24:27;;;;;;;9.88;7.65;;;;;;;;;;5088823;28;20756;-50
2022/08/05 02:26:56;;;;;;;12.48;8.40;;;;;;;;;;5090936;28;20028;-52
2022/08/05 02:29:23;;;;;;;11.05;7.63;;;;;;;;;;5089023;28;20047;-51
2022/08/05 02:31:50;;;;;;;10.70;7.25;;;;;;;;;;5091245;28;20504;-51
2022/08/05 02:34:17;;;;;;;8.77;6.88;;;;;;;;;;5078570;28;20040;-54
2022/08/05 02:36:45;;;;;;;8.18;6.50;;;;;;;;;;5072195;28;20036;-54
2022/08/05 02:39:12;;;;;;;9.85;7.22;;;;;;;;;;5075531;28;20121;-52
2022/08/05 02:41:38;;;;;;;;;;;;;;;;;;5072914;28;20035;-54
2022/08/05 02:44:07;;;;;;;13.73;7.20;;;;;;;;;;5071237;28;19908;-55
2022/08/05 02:46:35;;;;;;;7.68;6.88;;;;;;;;;;5070183;28;20085;-51
2022/08/05 02:49:02;;;;;;;11.82;7.25;;;;;;;;;;5071110;28;20032;-53
2022/08/05 02:51:28;;;;;;;;;;;;;;;;;;5075598;28;20490;-51
2022/08/05 02:53:54;;;;;;;10.55;8.38;;;;;;;;;;5075069;28;19912;-51
2022/08/05 02:56:20;;;;;;;9.15;7.40;;;;;;;;;;5084333;28;20032;-50
2022/08/05 02:58:47;;;;;;;13.77;7.03;;;;;;;;;;5086275;28;20370;-50
2022/08/05 03:01:16;;;;;;;11.20;7.45;;;;;;;;;;5086696;28;20055;-51
2022/08/05 03:03:43;;;;;;;9.43;7.15;;;;;;;;;;5080828;28;20504;-53
2022/08/05 03:06:10;;;;;;;8.93;7.35;;;;;;;;;;5086163;28;20433;-51
2022/08/05 03:08:37;;;;;;;8.23;7.43;;;;;;;;;;5081738;28;20413;-51
2022/08/05 03:11:03;;;;;;;9.40;6.65;;;;;;;;;;5091331;28;20024;-53
2022/08/05 03:13:30;;;;;;;24.20;8.23;;;;;;;;;;5085692;28;20033;-51
2022/08/05 03:15:56;;;;;;;10.50;6.93;;;;;;;;;;5069803;28;20425;-52
2022/08/05 03:18:22;;;;;;;9.38;6.80;;;;;;;;;;5062415;28;20506;-53
2022/08/05 03:20:47;;;;;;;11.55;6.50;;;40.90;29.90;;;;;;5071025;28;20017;-51
2022/08/05 03:23:14;;;;;;;11.70;8.50;;;;;;;;;;5070397;28;20020;-53
2022/08/05 03:25:40;;;;;;;9.82;7.45;;;;;;;;;;5071822;28;20040;-50
2022/08/05 03:28:07;;;;;;;11.70;7.90;;;;;;;;;;5072941;28;20071;-51
2022/08/05 03:30:34;;;;;;;12.50;7.55;;;;;;;;;;5084860;28;20068;-50
2022/08/05 03:33:01;;;;;;;20.63;7.70;;;;;;;;;;5073869;28;20033;-50
2022/08/05 03:35:28;;;;;;;11.57;7.18;;;;;;;;;;5080743;28;20099;-50
2022/08/05 03:37:57;;;;;;;13.00;6.55;;;;;;;;;;5093872;28;20054;-52
2022/08/05 03:40:23;;;;;;;18.83;8.10;;;;;;;;;;5076634;28;20436;-50
2022/08/05 03:42:49;;;;;;;29.80;8.38;;;;;;;;;;5079853;28;20024;-52
2022/08/05 03:45:15;;;;;;;20.70;9.70;;;;;;;;;;5085101;28;20103;-51
2022/08/05 03:47:41;;;;;;;19.80;8.85;;;;;;;;;;5094301;28;20028;-51
2022/08/05 03:50:07;;;;;;;17.70;9.57;;;;;;;;;;5086250;28;20111;-51
2022/08/05 03:52:37;;;;;;;19.95;9.45;;;;;;;;;;5066670;28;20775;-51
2022/08/05 03:55:09;;;;;;;12.65;9.45;;;;;;;;;;5073830;28;20059;-50
2022/08/05 03:57:36;;;;;;;14.10;8.77;;;;;;;;;;5073625;28;20390;-51
2022/08/05 04:00:07;;;;;;;9.98;7.50;;;;;;;;;;5073933;28;20533;-52
2022/08/05 04:02:35;;;;;;;9.05;7.65;;;;;;;;;;5067039;28;20491;-50
2022/08/05 04:05:02;;;;;;;10.18;7.03;;;;;;;;;;5057910;28;20028;-50
2022/08/05 04:07:28;;;;;;;10.73;8.05;;;;;;;;;;5054190;28;20025;-50
2022/08/05 04:09:54;;;;;;;10.07;8.13;;;;;;;;;;5053660;28;20029;-50
2022/08/05 04:12:20;;;;;;;13.65;8.68;;;;;;;;;;5053567;28;20029;-49
2022/08/05 04:14:46;;;;;;;11.00;9.55;;;;;;;;;;5053739;28;20067;-54
2022/08/05 04:17:12;;;;;;;11.48;8.60;;;;;;;;;;5052181;28;20025;-51
2022/08/05 04:19:46;;;;;;;9.82;8.50;;;;;;;;;;5053555;28;20028;-52
2022/08/05 04:22:12;;;;;;;12.77;10.23;;;;;;;;;;5053554;28;20021;-51
2022/08/05 04:24:42;;;;;;;12.23;9.27;;;;;;;;;;5051988;28;20057;-51
2022/08/05 04:27:08;;;;;;;12.40;9.27;;;;;;;;;;5053330;28;20458;-54
2022/08/05 04:29:34;;;;;;;12.77;8.83;;;;;;;;;;5053503;28;20075;-51
2022/08/05 04:32:00;;;;;;;14.02;8.07;;;;;;;;;;5053466;28;20317;-51
2022/08/05 04:34:26;;;;;;;13.37;9.07;;;;;;;;;;5053368;28;20029;-52
2022/08/05 04:36:52;;;;;;;10.67;8.20;;;;;;;;;;5053096;28;20769;-51
2022/08/05 04:39:19;;;;;;;15.45;9.25;;;;;;;;;;5052683;28;20584;-52
2022/08/05 04:41:45;;;;;;;14.38;8.73;;;;;;;;;;5053012;28;20143;-50
2022/08/05 04:44:11;;;;;;;9.95;8.77;;;;;;;;;;5053193;28;20260;-49
2022/08/05 04:46:37;;;;;;;12.93;9.90;;;;;;;;;;5053343;28;20170;-50
2022/08/05 04:49:03;;;;;;;20.52;11.48;;;;;;;;;;5052996;28;20104;-52
2022/08/05 04:51:30;;;;;;;12.90;11.40;;;;;;;;;;5053009;28;20052;-54
2022/08/05 04:53:56;;;;;;;12.95;11.32;;;;;;;;;;5053283;28;20122;-52
2022/08/05 04:56:22;;;;;;;13.13;11.25;;;;;;;;;;5052638;28;20040;-51
2022/08/05 04:58:49;;;;;;;15.07;11.27;;;;;;;;;;5053173;28;20070;-52
2022/08/05 05:01:15;;;;;;;15.00;11.65;;;;;;;;;;5052782;28;20032;-53
2022/08/05 05:03:41;;;;;;;31.45;11.13;;;;;;;;;;5053417;28;20029;-52
2022/08/05 05:06:10;;;;;;;24.88;10.43;;;;;;;;;;5052627;28;20434;-52
2022/08/05 05:08:36;;;;;;;14.52;9.57;;;;;;;;;;5052675;28;20025;-51
2022/08/05 05:11:02;;;;;;;12.88;9.50;;;;;;;;;;5052513;28;20104;-51
2022/08/05 05:13:28;;;;;;;13.70;9.95;;;;;;;;;;5051514;28;20440;-50
2022/08/05 05:15:54;;;;;;;19.80;10.23;;;;;;;;;;5052459;28;20024;-52
2022/08/05 05:18:20;;;;;;;16.77;9.97;;;;;;;;;;5052361;28;20792;-51
2022/08/05 05:20:47;;;;;;;14.77;10.02;;;;;;;;;;5052394;28;20338;-51
2022/08/05 05:23:13;;;;;;;13.48;9.98;;;;;;;;;;5052268;28;20486;-50
2022/08/05 05:25:42;;;;;;;16.23;9.75;;;;;;;;;;5051042;28;20024;-50
2022/08/05 05:28:09;;;;;;;11.32;8.73;;;;;;;;;;5050860;28;20028;-50
2022/08/05 05:30:36;;;;;;;13.40;10.15;;;;;;;;;;5052283;28;20040;-52
2022/08/05 05:33:03;;;;;;;14.40;9.57;;;;;;;;;;5052093;28;20387;-52
2022/08/05 05:35:29;;;;;;;12.65;10.05;;;;;;;;;;5052225;28;20033;-51
2022/08/05 05:37:59;;;;;;;18.08;9.18;;;;;;;;;;5052063;28;20029;-51
2022/08/05 05:40:25;;;;;;;12.40;9.73;;;;;;;;;;5051946;28;20025;-52
2022/08/05 05:42:51;;;;;;;21.23;10.40;;;;;;;;;;5052009;28;20017;-53
2022/08/05 05:45:18;;;;;;;10.97;8.80;;;;;;;;;;5051895;28;20032;-54
2022/08/05 05:47:44;;;;;;;13.05;9.25;;;;;;;;;;5051771;28;20256;-52
2022/08/05 05:50:11;;;;;;;17.55;8.93;;;;;;;;;;5051062;28;20025;-52
2022/08/05 05:52:38;;;;;;;12.88;8.77;;;;;;;;;;5051893;28;20033;-51
2022/08/05 05:55:05;;;;;;;14.95;8.88;;;;;;;;;;5051703;28;20316;-51
2022/08/05 05:57:31;;;;;;;11.70;7.57;;;;;;;;;;5051757;28;20372;-54
2022/08/05 05:59:57;;;;;;;11.27;7.93;;;;;;;;;;5051942;28;20376;-51
2022/08/05 06:02:23;;;;;;;14.55;7.93;;;;;;;;;;5051632;28;20036;-51
2022/08/05 06:04:49;;;;;;;15.18;7.30;;;;;;;;;;5051660;28;20017;-51
2022/08/05 06:07:15;;;;;;;11.18;7.40;;;;;;;;;;5051497;28;20047;-50
2022/08/05 06:09:41;;;;;;;12.00;7.10;;;;;;;;;;5051596;28;20399;-53
2022/08/05 06:12:07;;;;;;;8.57;6.47;;;;;;;;;;5050381;28;20074;-52
2022/08/05 06:14:33;;;;;;;11.93;7.13;;;;;;;;;;5051596;28;20032;-53
2022/08/05 06:17:00;;;;;;;11.35;6.70;;;;;;;;;;5050072;28;20033;-52
2022/08/05 06:19:26;;;;;;;14.55;7.05;;;;;;;;;;5051736;28;20224;-56
2022/08/05 06:21:52;;;;;;;15.77;6.93;;;;;;;;;;5051531;28;20395;-51
2022/08/05 06:24:18;;;;;;;9.95;7.57;;;;;;;;;;5051578;28;20029;-55
2022/08/05 06:26:44;;;;;;;10.93;6.95;;;;;;;;;;5051420;28;20033;-52
2022/08/05 06:29:11;;;;;;;12.90;8.45;;;;;;;;;;5051520;28;20522;-52
2022/08/05 06:31:37;;;;;;;16.63;7.55;;;;;;;;;;5051320;28;20028;-52
2022/08/05 06:34:04;;;;;;;13.07;7.53;;;;;;;;;;5051285;28;20572;-52
2022/08/05 06:36:30;;;;;;;;;;;;;;;;;;5051588;28;20034;-52
2022/08/05 06:38:56;;;;;;;11.35;5.97;;;;;;;;;;5051422;28;19909;-55
2022/08/05 06:41:22;;;;;;;12.05;5.50;;;;;;;;;;5051292;28;20101;-50
2022/08/05 06:43:48;;;;;;;17.80;6.03;;;;;;;;;;5051298;28;20021;-53
2022/08/05 06:46:14;;;;;;;11.30;6.97;;;;;;;;;;5051128;28;20029;-51
2022/08/05 06:48:40;;;;;;;11.50;6.30;;;;;;;;;;5051251;28;20037;-54
2022/08/05 06:51:07;;;;;;;9.50;6.30;;;;;;;;;;5051288;28;20506;-54
2022/08/05 06:53:34;;;;;;;7.68;6.30;;;;;;;;;;5051084;28;20033;-53
2022/08/05 06:56:04;;;;;;;7.95;6.20;;;;;;;;;;5051065;28;20033;-50
2022/08/05 06:58:30;;;;;;;11.25;7.72;;;;;;;;;;5051030;28;20515;-54
2022/08/05 07:01:00;;;;;;;11.68;6.65;;;;;;;;;;5052184;28;20563;-53
2022/08/05 07:03:27;;;;;;;12.98;7.18;;;;;;;;;;5054999;28;20025;-54
2022/08/05 07:05:53;;;;;;;9.68;6.65;;;;;;;;;;5055318;28;20072;-52
2022/08/05 07:08:21;;;;;;;7.57;6.05;;;;;;;;;;5054762;28;20471;-55
2022/08/05 07:10:47;;;;;;;11.68;6.90;;;;;;;;;;5055083;28;20021;-55
2022/08/05 07:18:41;;;;;;;10.25;7.57;;;29.00;58.50;;;;;;5055271;28;20106;-56
2022/08/05 07:21:07;;;;;;;12.17;6.80;;;29.00;58.30;;;;;;5054887;28;20065;-54
2022/08/05 07:23:33;;;;;;;14.10;6.97;;;29.10;59.00;;;;;;5054958;28;20025;-55
2022/08/05 07:25:59;;;;;;;12.27;6.13;;;29.10;57.80;;;;;;5054586;28;20376;-55
2022/08/05 07:28:25;;;;;;;14.43;6.73;;;;;;;;;;5054471;28;20059;-56
2022/08/05 07:30:51;;;;;;;8.82;5.78;;;29.10;57.00;;;;;;5054603;28;20033;-57
2022/08/05 07:33:19;;;;;;;9.63;5.93;;;29.20;57.40;;;;;;5054790;28;20047;-56
2022/08/05 07:35:45;;;;;;;20.83;6.55;;;29.20;57.50;;;;;;5054650;28;20025;-56
2022/08/05 07:38:11;;;;;;;8.83;5.33;;;29.30;57.10;;;;;;5054158;28;20091;-55
2022/08/05 07:40:37;;;;;;;9.88;6.32;;;29.40;56.80;;;;;;5053131;28;20780;-56
2022/08/05 07:43:03;;;;;;;12.80;6.00;;;29.40;56.70;;;;;;5054510;28;20025;-56
2022/08/05 07:45:28;;;;;;;9.33;5.20;;;29.40;56.50;;;;;;5054573;28;20017;-57
2022/08/05 07:47:54;;;;;;;8.67;5.70;;;29.50;56.00;;;;;;5054320;28;20029;-57
2022/08/05 07:50:20;;;;;;;14.20;5.20;;;29.50;55.90;;;;;;5054354;28;20029;-57
2022/08/05 07:52:45;;;;;;;10.47;4.70;;;29.50;55.90;;;;;;5054215;28;20100;-56
2022/08/05 07:55:11;;;;;;;7.27;3.53;;;29.60;55.10;;;;;;5052999;28;20491;-56
2022/08/05 07:57:37;;;;;;;14.90;4.27;;;29.60;53.80;;;;;;5053871;28;20055;-55
2022/08/05 08:00:07;;;;;;;22.40;4.40;;;29.60;53.60;;;;;;5054255;28;20605;-53
2022/08/05 08:02:33;;;;;;;12.63;3.83;;;29.70;53.80;;;;;;5053934;28;20021;-53
2022/08/05 08:04:59;;;;;;;5.53;4.03;;;29.80;52.80;;;;;;5053868;28;20552;-57
2022/08/05 08:07:26;;;;;;;14.05;3.85;;;29.80;52.60;;;;;;5054141;28;20111;-57
2022/08/05 08:09:52;;;;;;;9.00;4.50;;;29.80;52.70;;;;;;5053833;28;20024;-56
2022/08/05 08:12:18;;;;;;;7.72;4.20;;;29.90;52.90;;;;;;5052907;28;20029;-56
2022/08/05 08:14:44;;;;;;;12.83;4.53;;;29.90;52.60;;;;;;5052351;28;20035;-55
2022/08/05 08:17:10;;;;;;;7.95;5.00;;;29.90;52.40;;;;;;5053607;28;20025;-57
2022/08/05 08:19:37;;;;;;;16.83;4.95;;;30.00;52.60;;;;;;5053687;28;20103;-57
2022/08/05 08:22:03;;;;;;;10.85;4.53;;;30.00;52.90;;;;;;5053554;28;20028;-57
2022/08/05 08:24:29;;;;;;;9.68;4.80;;;30.10;53.30;;;;;;5053495;28;20025;-55
2022/08/05 08:26:55;;;;;;;10.85;4.20;;;30.10;51.80;;;;;;5053561;28;20112;-56
2022/08/05 08:29:21;;;;;;;8.93;4.85;;;30.20;52.10;;;;;;5053642;28;20059;-56
2022/08/05 08:31:48;;;;;;;13.27;4.47;;;30.20;51.80;;;;;;5053511;28;20021;-56
2022/08/05 08:34:13;;;;;;;;;;;30.10;52.00;;;;;;5053820;28;20530;-57
2022/08/05 08:36:40;;;;;;;15.55;4.15;;;;;;;;;;5051652;28;20000;-58
2022/08/05 08:39:06;;;;;;;14.77;5.30;;;;;;;;;;5053408;28;20025;-56
2022/08/05 08:41:35;;;;;;;12.27;4.70;;;30.10;54.20;;;;;;5053251;28;20104;-56
2022/08/05 08:44:02;;;;;;;18.40;4.65;;;30.40;51.60;;;;;;5053142;28;20017;-56
2022/08/05 08:46:30;;;;;;;14.45;5.22;;;30.40;53.20;;;;;;5053030;28;20033;-56
2022/08/05 08:48:57;;;;;;;12.98;4.40;;;30.50;52.60;;;;;;5053038;28;20021;-58
2022/08/05 08:51:23;;;;;;;;;;;30.60;52.40;;;;;;5053347;28;20399;-56
2022/08/05 08:53:49;;;;;;;12.25;4.88;;;30.60;51.40;;;;;;5052844;28;19948;-58
2022/08/05 08:56:16;;;;;;;8.57;4.57;;;;;;;;;;5052744;28;20060;-58
2022/08/05 08:58:42;;;;;;;17.30;4.63;;;30.60;52.80;;;;;;5053007;28;20029;-56
2022/08/05 09:01:09;;;;;;;11.70;4.13;;;30.70;51.60;;;;;;5052854;28;20383;-55
2022/08/05 09:03:36;;;;;;;10.48;4.30;;;;;;;;;;5052713;28;20021;-58
2022/08/05 09:06:02;;;;;;;13.13;4.90;;;;;;;;;;5052706;28;20491;-58
2022/08/05 09:08:27;;;;;;;9.60;4.00;;;30.80;52.00;;;;;;5052556;28;20025;-58
2022/08/05 09:10:53;;;;;;;7.47;3.63;;;31.00;51.00;;;;;;5052759;28;20028;-57
2022/08/05 09:13:19;;;;;;;9.77;3.85;;;31.00;50.80;;;;;;5052651;28;20024;-53
2022/08/05 09:15:46;;;;;;;7.83;3.63;;;;;;;;;;5052706;28;20111;-56
2022/08/05 09:18:12;;;;;;;9.07;3.20;;;;;;;;;;5052191;28;20029;-56
2022/08/05 09:20:40;;;;;;;9.55;3.47;;;;;;;;;;5052393;28;20067;-56
2022/08/05 09:23:16;;;;;;;10.13;3.42;;;31.00;50.40;;;;;;5052343;28;20055;-55
2022/08/05 09:25:44;;;;;;;6.45;3.10;;;31.50;50.30;;;;;;5052473;28;20028;-55
2022/08/05 09:28:11;;;;;;;7.03;4.05;;;;;;;;;;5052207;28;20025;-57
2022/08/05 09:30:37;;;;;;;6.05;3.10;;;;;;;;;;5052192;28;20021;-55
2022/08/05 09:33:03;;;;;;;4.68;3.00;;;;;;;;;;5052141;28;20060;-56
2022/08/05 09:35:29;;;;;;;11.00;4.00;;;;;;;;;;5052444;28;20048;-54
2022/08/05 09:37:57;;;;;;;8.07;2.60;;;;;;;;;;5052032;28;20029;-57
2022/08/05 09:40:38;;;;;;;10.48;2.42;;;;;;;;;;5052170;28;20024;-56
2022/08/05 09:43:09;;;;;;;6.13;2.67;;;;;;;;;;5051998;28;20052;-57
2022/08/05 09:45:43;;;;;;;6.40;2.72;;;;;;;;;;5052288;28;20365;-55
2022/08/05 09:48:39;;;;;;;4.30;2.80;;;;;;;;;;5051777;28;20028;-57
2022/08/05 09:51:11;;;;;;;4.75;2.80;;;;;;;;;;5047148;28;20029;-56
2022/08/05 09:53:48;;;;;;;11.48;2.97;;;;;;;;;;5051754;28;20090;-56
2022/08/05 09:56:23;;;;;;;11.90;3.42;;;;;;;;;;5051604;28;20021;-57
2022/08/05 09:58:56;;;;;;;6.93;2.67;;;;;;;;;;5051838;28;20025;-57
2022/08/05 10:01:22;;;;;;;5.07;2.72;;;;;;;;;;5051750;28;20021;-57
2022/08/05 10:03:56;;;;;;;7.40;2.92;;;;;;;;;;5052247;28;20025;-57
2022/08/05 10:06:22;;;;;;;6.00;2.83;;;;;;;;;;5051793;28;20028;-56
2022/08/05 10:08:48;;;;;;;5.57;2.90;;;;;;;;;;5051764;28;20032;-56
2022/08/05 10:11:15;;;;;;;4.38;2.33;;;;;;;;;;5051648;28;20120;-56
2022/08/05 10:13:42;;;;;;;6.78;2.58;;;;;;;;;;5051636;28;20033;-57
2022/08/05 10:16:27;;;;;;;4.47;2.20;;;;;;;;;;5051372;28;20054;-58
2022/08/05 10:18:54;;;;;;;15.27;3.20;;;;;;;;;;5051824;28;20498;-54
2022/08/05 10:21:20;;;;;;;8.32;2.53;;;;;;;;;;5051562;28;20032;-55
2022/08/05 10:23:46;;;;;;;4.93;2.33;;;;;;;;;;5051485;28;20167;-56
2022/08/05 10:26:13;;;;;;;7.32;2.22;;;;;;;;;;5051329;28;20027;-57
2022/08/05 10:28:39;;;;;;;;;;;31.60;49.80;;;;;;5051878;28;20140;-57
2022/08/05 10:31:05;;;;;;;3.38;1.80;;;;;;;;;;5051399;28;19932;-56
2022/08/05 10:33:32;;;;;;;4.78;1.90;;;;;;;;;;5051259;28;20106;-55
2022/08/05 10:36:00;;;;;;;4.40;2.28;;;;;;;;;;5052536;28;20387;-58
2022/08/05 10:38:27;;;;;;;6.07;1.83;;;;;;;;;;5055253;28;20372;-56
2022/08/05 10:41:13;;;;;;;8.43;2.45;;;;;;;;;;5055534;28;20480;-56
2022/08/05 10:43:42;;;;;;;3.33;1.90;;;;;;;;;;5055223;28;20495;-57
2022/08/05 10:46:09;;;;;;;3.42;1.70;;;;;;;;;;5073430;28;20030;-57
2022/08/05 10:48:35;;;;;;;5.00;2.13;;;;;;;;;;5081848;28;20032;-57
2022/08/05 10:51:01;;;;;;;10.80;1.85;;;;;;;;;;5075373;28;20028;-53
2022/08/05 10:53:45;;;;;;;2.72;1.70;;;;;;;;;;5074411;28;20028;-54
2022/08/05 10:56:16;;;;;;;4.75;1.73;;;;;;;;;;5083481;28;20407;-58
2022/08/05 10:58:54;;;;;;;3.78;2.08;;;;;;;;;;5088119;28;20050;-57
2022/08/05 11:01:38;;;;;;;5.18;1.75;;;32.80;42.60;;;;;;5094045;28;20035;-55
2022/08/05 11:04:10;;;;;;;4.22;1.58;;;33.80;36.60;;;;;;5075025;28;20025;-55
2022/08/05 11:06:56;;;;;;;6.32;1.98;;;33.70;36.20;;;;;;5074811;28;20487;-55
2022/08/05 11:09:23;;;;;;;2.55;2.03;;;;;;;;;;5084138;28;20157;-55
2022/08/05 11:11:50;;;;;;;1.92;1.73;;;;;;;;;;5081046;28;20040;-56
2022/08/05 11:14:27;;;;;;;5.20;1.88;;;;;;;;;;5093490;28;20422;-56
2022/08/05 11:17:11;;;;;;;8.15;2.17;;;;;;;;;;5062352;28;20040;-58
2022/08/05 11:19:45;;;;;;;6.40;2.00;;;;;;;;;;5054844;28;20017;-56
2022/08/05 11:22:43;;;;;;;2.15;1.70;;;;;;;;;;5057350;28;20037;-54
2022/08/05 11:25:28;;;;;;;3.53;1.70;;;;;;;;;;5025833;28;20029;-57
2022/08/05 11:27:55;;;;;;;3.13;1.67;;;;;;;;;;5093045;28;20035;-56
2022/08/05 11:30:21;;;;;;;5.35;1.60;;;;;;;;;;5094686;28;20494;-57
2022/08/05 11:32:47;;;;;;;11.30;2.03;;;;;;;;;;5092967;28;20449;-57
2022/08/05 11:35:32;;;;;;;5.40;2.47;;;;;;;;;;5094767;28;20491;-56
2022/08/05 11:37:59;;;;;;;2.72;2.10;;;;;;;;;;5074405;28;20412;-56
2022/08/05 11:40:44;;;;;;;9.73;1.80;;;;;;;;;;5074409;28;20024;-56
2022/08/05 11:43:20;;;;;;;3.92;1.67;;;;;;;;;;5078245;28;20069;-56
2022/08/05 11:45:47;;;;;;;6.70;1.87;;;;;;;;;;5075090;28;20063;-56
2022/08/05 11:48:13;;;;;;;7.05;1.80;;;;;;;;;;5080499;28;20118;-57
2022/08/05 11:50:40;;;;;;;3.10;2.00;;;;;;;;;;5092241;28;20470;-56
2022/08/05 11:53:06;;;;;;;2.72;1.70;;;;;;;;;;5088124;28;20024;-57
2022/08/05 11:55:32;;;;;;;5.97;1.95;;;;;;;;;;5070890;28;20402;-58
2022/08/05 11:57:59;;;;;;;2.85;1.90;;;;;;;;;;5070307;28;20024;-57
2022/08/05 12:00:26;;;;;;;6.93;2.17;;;;;;;;;;5073783;28;20036;-57
2022/08/05 12:02:52;;;;;;;3.55;2.35;;;;;;;;;;5075028;28;20025;-57
2022/08/05 12:05:25;;;;;;;3.35;1.67;;;;;;;;;;5073630;28;20024;-55
2022/08/05 12:07:52;;;;;;;3.58;1.42;;;;;;;;;;5074628;28;20410;-56
2022/08/05 12:10:19;;;;;;;2.78;1.90;;;;;;;;;;5087899;28;20043;-53
2022/08/05 12:12:45;;;;;;;2.97;2.08;;;;;;;;;;5082570;28;20025;-58
2022/08/05 12:15:21;;;;;;;2.17;1.45;;;;;;;;;;5073559;28;20039;-58
2022/08/05 12:17:47;;;;;;;4.13;1.70;;;;;;;;;;5083955;28;20067;-55
2022/08/05 12:20:13;;;;;;;;;;;;;;;;;;5084744;28;20504;-55
2022/08/05 12:22:39;;;;;;;4.90;1.70;;;;;;;;;;5083933;28;19915;-57
2022/08/05 12:25:05;;;;;;;11.60;2.05;;;;;;;;;;5093691;28;20077;-57
2022/08/05 12:27:31;;;;;;;6.22;1.88;;;;;;;;;;5093469;28;20048;-56
2022/08/05 12:30:00;;;;;;;9.13;2.13;;;;;;;;;;5086319;28;20430;-57
2022/08/05 12:32:26;;;;;;;4.18;1.90;;;;;;;;;;5073500;28;20103;-54
2022/08/05 12:34:53;;;;;;;8.82;2.33;;;;;;;;;;5073268;28;20466;-56
2022/08/05 12:37:19;;;;;;;6.03;1.83;;;;;;;;;;5074079;28;20025;-56
2022/08/05 12:39:45;;;;;;;5.18;1.77;;;;;;;;;;5073728;28;20101;-55
2022/08/05 12:42:16;;;;;;;2.80;1.70;;;;;;;;;;5073190;28;20111;-56
2022/08/05 12:44:45;;;;;;;4.38;1.77;;;;;;;;;;5073217;28;20035;-55
2022/08/05 12:47:12;;;;;;;5.38;1.83;;;;;;;;;;5076490;28;20107;-55
2022/08/05 12:49:48;;;;;;;8.50;1.88;;;;;;;;;;5092290;28;20032;-56
2022/08/05 12:52:15;;;;;;;4.90;1.73;;;;;;;;;;5072981;28;20028;-57
2022/08/05 12:54:41;;;;;;;6.95;1.90;;;;;;;;;;5073546;28;20206;-54
2022/08/05 12:57:09;;;;;;;5.40;1.50;;;;;;;;;;5075384;28;20793;-58
2022/08/05 12:59:44;;;;;;;10.90;2.08;;;;;;;;;;5072499;28;20036;-53
2022/08/05 13:02:12;;;;;;;2.38;1.38;;;;;;;;;;5078351;28;20455;-54
2022/08/05 13:04:39;;;;;;;6.78;1.90;;;;;;;;;;5082667;28;20028;-54
2022/08/05 13:07:06;;;;;;;3.40;1.60;;;;;;;;;;5072617;28;20032;-57
2022/08/05 13:09:32;;;;;;;2.95;1.83;;;;;;;;;;5072596;28;20051;-56
2022/08/05 13:12:06;;;;;;;2.85;1.55;;;;;;;;;;5084389;28;20443;-54
2022/08/05 13:14:37;;;;;;;2.10;1.73;;;;;;;;;;5092625;28;20024;-55
2022/08/05 13:17:07;;;;;;;6.93;1.83;;;;;;;;;;5077285;28;20132;-56
2022/08/05 13:19:33;;;;;;;3.72;1.80;;;;;;;;;;5073569;28;20552;-55
2022/08/05 13:21:59;;;;;;;8.13;1.98;;;;;;;;;;5073817;28;20387;-57
2022/08/05 13:24:25;;;;;;;;;;;;;;;;;;5093043;28;20023;-58
2022/08/05 13:26:51;;;;;;;3.78;2.13;;;;;;;;;;5072947;28;19912;-57
2022/08/05 13:29:18;;;;;;;;;;;;;;;;;;5072609;28;20028;-55
2022/08/05 13:31:45;;;;;;;6.95;1.80;;;;;;;;;;5072336;28;19905;-58
2022/08/05 13:34:11;;;;;;;4.13;2.00;;;;;;;;;;5077614;28;20031;-56
2022/08/05 13:36:37;;;;;;;6.07;2.10;;;;;;;;;;5075741;28;20432;-57
2022/08/05 13:39:05;;;;;;;3.28;2.05;;;;;;;;;;5072263;28;20081;-57
2022/08/05 13:41:31;;;;;;;3.72;2.20;;;;;;;;;;5071988;28;20028;-56
2022/08/05 13:43:57;;;;;;;6.65;1.95;;;;;;;;;;5071902;28;20020;-56
2022/08/05 13:46:23;;;;;;;3.47;1.27;;;;;;;;;;5085419;28;20398;-56
2022/08/05 13:48:49;;;;;;;4.25;2.15;;;;;;;;;;5085037;28;20493;-57
2022/08/05 13:51:16;;;;;;;4.85;1.73;;;;;;;;;;5078037;28;20119;-58
2022/08/05 13:53:42;;;;;;;7.43;2.20;;;;;;;;;;5071377;28;20035;-56
2022/08/05 13:56:09;;;;;;;3.35;1.70;;;;;;;;;;5074874;28;20166;-59
2022/08/05 13:58:35;;;;;;;3.92;1.70;;;;;;;;;;5072221;28;20074;-57
2022/08/05 14:01:01;;;;;;;5.00;2.13;;;;;;;;;;5071631;28;20040;-58
2022/08/05 14:03:27;;;;;;;4.40;2.47;;;;;;;;;;5082307;28;20034;-58
2022/08/05 14:05:53;;;;;;;3.88;1.95;;;;;;;;;;5072861;28;20037;-56
2022/08/05 14:08:20;;;;;;;7.03;2.10;;;;;;;;;;5071429;28;20538;-56
2022/08/05 14:10:46;;;;;;;3.70;2.35;;;;;;;;;;5071556;28;20437;-57
2022/08/05 14:13:12;;;;;;;2.80;2.58;;;;;;;;;;5084896;28;20028;-56
2022/08/05 14:15:38;;;;;;;27.25;3.83;;;;;;;;;;5087840;28;20028;-55
2022/08/05 14:18:04;;;;;;;6.72;1.92;;;;;;;;;;5080300;28;20028;-54
2022/08/05 14:20:31;;;;;;;9.52;2.33;;;;;;;;;;5081881;28;20095;-56
2022/08/05 14:23:00;;;;;;;4.20;1.50;;;;;;;;;;5073161;28;20020;-55
2022/08/05 14:25:27;;;;;;;8.07;2.03;;;;;;;;;;5070921;28;20025;-55
2022/08/05 14:27:53;;;;;;;3.38;2.17;;;;;;;;;;5071540;28;20386;-55
2022/08/05 14:30:19;;;;;;;2.80;2.05;;;;;;;;;;5071515;28;20031;-55